sensor_id;sensor_type;location;lat;lon;timestamp;pressure;altitude;pressure_sealevel;temperature;humidity
42771;BME280;28426;42.872;25.314;2024-01-30T00:00:59;99141.13;;;-3.87;88.08
42771;BME280;28426;42.872;25.314;2024-01-30T00:03:30;99140.28;;;-3.88;87.81
42771;BME280;28426;42.872;25.314;2024-01-30T00:06:03;99146.38;;;-3.89;87.83
42771;BME280;28426;42.872;25.314;2024-01-30T00:08:34;99145.63;;;-3.92;86.76
42771;BME280;28426;42.872;25.314;2024-01-30T00:11:08;99150.13;;;-3.98;86.74
42771;BME280;28426;42.872;25.314;2024-01-30T00:13:38;99152.81;;;-4.01;87.15
42771;BME280;28426;42.872;25.314;2024-01-30T00:16:20;99155.56;;;-4.05;87.36
42771;BME280;28426;42.872;25.314;2024-01-30T00:18:52;99143.38;;;-4.07;87.57
42771;BME280;28426;42.872;25.314;2024-01-30T00:21:20;99153.00;;;-4.09;87.42
42771;BME280;28426;42.872;25.314;2024-01-30T00:23:51;99152.72;;;-3.98;91.50
42771;BME280;28426;42.872;25.314;2024-01-30T00:26:25;99161.72;;;-3.78;92.33
42771;BME280;28426;42.872;25.314;2024-01-30T00:28:56;99156.78;;;-3.56;94.34
42771;BME280;28426;42.872;25.314;2024-01-30T00:31:27;99159.13;;;-3.46;89.18
42771;BME280;28426;42.872;25.314;2024-01-30T00:33:57;99164.66;;;-3.57;85.34
42771;BME280;28426;42.872;25.314;2024-01-30T00:36:28;99166.94;;;-3.78;84.07
42771;BME280;28426;42.872;25.314;2024-01-30T00:38:59;99164.81;;;-3.95;85.31
42771;BME280;28426;42.872;25.314;2024-01-30T00:41:36;99162.47;;;-4.04;87.50
42771;BME280;28426;42.872;25.314;2024-01-30T00:44:07;99166.84;;;-4.07;88.33
42771;BME280;28426;42.872;25.314;2024-01-30T00:46:37;99169.84;;;-3.89;93.52
42771;BME280;28426;42.872;25.314;2024-01-30T00:49:08;99171.19;;;-3.74;93.67
42771;BME280;28426;42.872;25.314;2024-01-30T00:51:39;99163.72;;;-3.56;93.81
42771;BME280;28426;42.872;25.314;2024-01-30T00:54:10;99168.44;;;-3.39;93.70
42771;BME280;28426;42.872;25.314;2024-01-30T00:56:43;99167.09;;;-3.22;93.00
42771;BME280;28426;42.872;25.314;2024-01-30T00:59:14;99163.16;;;-3.07;92.89
42771;BME280;28426;42.872;25.314;2024-01-30T01:01:45;99166.16;;;-2.91;92.30
42771;BME280;28426;42.872;25.314;2024-01-30T01:04:16;99162.19;;;-2.76;91.83
42771;BME280;28426;42.872;25.314;2024-01-30T01:06:49;99157.41;;;-2.63;91.25
42771;BME280;28426;42.872;25.314;2024-01-30T01:09:20;99156.16;;;-2.51;90.67
42771;BME280;28426;42.872;25.314;2024-01-30T01:11:53;99157.50;;;-2.39;90.43
42771;BME280;28426;42.872;25.314;2024-01-30T01:14:24;99153.72;;;-2.30;90.02
42771;BME280;28426;42.872;25.314;2024-01-30T01:16:55;99148.13;;;-2.19;89.29
42771;BME280;28426;42.872;25.314;2024-01-30T01:19:26;99143.47;;;-2.11;89.20
42771;BME280;28426;42.872;25.314;2024-01-30T01:21:57;99144.06;;;-2.03;88.75
42771;BME280;28426;42.872;25.314;2024-01-30T01:24:29;99135.94;;;-1.95;90.95
42771;BME280;28426;42.872;25.314;2024-01-30T01:27:03;99136.63;;;-1.90;90.78
42771;BME280;28426;42.872;25.314;2024-01-30T01:29:34;99133.94;;;-1.88;91.14
42771;BME280;28426;42.872;25.314;2024-01-30T01:32:05;99130.56;;;-1.92;88.71
42771;BME280;28426;42.872;25.314;2024-01-30T01:34:36;99126.69;;;-2.05;87.60
42771;BME280;28426;42.872;25.314;2024-01-30T01:37:07;99132.53;;;-2.22;87.65
42771;BME280;28426;42.872;25.314;2024-01-30T01:39:38;99130.97;;;-2.28;90.90
42771;BME280;28426;42.872;25.314;2024-01-30T01:42:12;99127.47;;;-2.27;91.18
42771;BME280;28426;42.872;25.314;2024-01-30T01:44:42;99127.63;;;-2.32;88.60
42771;BME280;28426;42.872;25.314;2024-01-30T01:47:13;99134.06;;;-2.42;87.76
42771;BME280;28426;42.872;25.314;2024-01-30T01:49:45;99129.25;;;-2.55;87.09
42771;BME280;28426;42.872;25.314;2024-01-30T01:52:17;99129.66;;;-2.67;87.33
42771;BME280;28426;42.872;25.314;2024-01-30T01:54:48;99131.41;;;-2.66;90.79
42771;BME280;28426;42.872;25.314;2024-01-30T01:57:21;99124.13;;;-2.58;91.71
42771;BME280;28426;42.872;25.314;2024-01-30T01:59:53;99126.75;;;-2.58;89.56
42771;BME280;28426;42.872;25.314;2024-01-30T02:02:24;99120.72;;;-2.60;88.17
42771;BME280;28426;42.872;25.314;2024-01-30T02:05:00;99118.31;;;-2.66;88.07
42771;BME280;28426;42.872;25.314;2024-01-30T02:07:32;99124.66;;;-2.73;88.76
42771;BME280;28426;42.872;25.314;2024-01-30T02:10:03;99129.84;;;-2.72;91.64
42771;BME280;28426;42.872;25.314;2024-01-30T02:12:37;99126.88;;;-2.61;92.38
42771;BME280;28426;42.872;25.314;2024-01-30T02:15:08;99127.50;;;-2.54;90.60
42771;BME280;28426;42.872;25.314;2024-01-30T02:17:42;99122.81;;;-2.44;91.65
42771;BME280;28426;42.872;25.314;2024-01-30T02:20:13;99125.97;;;-2.34;90.80
42771;BME280;28426;42.872;25.314;2024-01-30T02:22:47;99125.88;;;-2.31;88.55
42771;BME280;28426;42.872;25.314;2024-01-30T02:25:18;99129.59;;;-2.39;87.33
42771;BME280;28426;42.872;25.314;2024-01-30T02:27:50;99127.34;;;-2.50;86.80
42771;BME280;28426;42.872;25.314;2024-01-30T02:30:21;99129.91;;;-2.48;90.65
42771;BME280;28426;42.872;25.314;2024-01-30T02:32:52;99131.56;;;-2.45;90.42
42771;BME280;28426;42.872;25.314;2024-01-30T02:35:22;99135.56;;;-2.35;88.79
42771;BME280;28426;42.872;25.314;2024-01-30T02:37:56;99137.38;;;-2.37;87.35
42771;BME280;28426;42.872;25.314;2024-01-30T02:40:27;99128.03;;;-2.44;86.28
42771;BME280;28426;42.872;25.314;2024-01-30T02:42:59;99131.78;;;-2.52;86.38
42771;BME280;28426;42.872;25.314;2024-01-30T02:45:30;99127.69;;;-2.60;87.30
42771;BME280;28426;42.872;25.314;2024-01-30T02:48:01;99136.63;;;-2.66;88.25
42771;BME280;28426;42.872;25.314;2024-01-30T02:50:32;99128.00;;;-2.70;88.87
42771;BME280;28426;42.872;25.314;2024-01-30T02:53:06;99133.88;;;-2.63;90.86
42771;BME280;28426;42.872;25.314;2024-01-30T02:55:36;99130.03;;;-2.53;90.83
42771;BME280;28426;42.872;25.314;2024-01-30T02:58:07;99130.03;;;-2.53;88.08
42771;BME280;28426;42.872;25.314;2024-01-30T03:00:38;99130.22;;;-2.57;87.56
42771;BME280;28426;42.872;25.314;2024-01-30T03:03:09;99127.88;;;-2.65;87.90
42771;BME280;28426;42.872;25.314;2024-01-30T03:05:40;99123.69;;;-2.71;88.45
42771;BME280;28426;42.872;25.314;2024-01-30T03:08:13;99115.72;;;-2.66;90.10
42771;BME280;28426;42.872;25.314;2024-01-30T03:10:44;99117.09;;;-2.56;90.17
42771;BME280;28426;42.872;25.314;2024-01-30T03:13:15;99120.50;;;-2.54;87.52
42771;BME280;28426;42.872;25.314;2024-01-30T03:15:46;99111.06;;;-2.58;86.88
42771;BME280;28426;42.872;25.314;2024-01-30T03:18:17;99123.47;;;-2.65;87.74
42771;BME280;28426;42.872;25.314;2024-01-30T03:20:48;99113.78;;;-2.61;90.10
42771;BME280;28426;42.872;25.314;2024-01-30T03:23:22;99113.53;;;-2.53;89.46
42771;BME280;28426;42.872;25.314;2024-01-30T03:25:52;99121.38;;;-2.53;87.66
42771;BME280;28426;42.872;25.314;2024-01-30T03:28:23;99115.41;;;-2.57;87.19
42771;BME280;28426;42.872;25.314;2024-01-30T03:30:54;99120.94;;;-2.66;86.22
42771;BME280;28426;42.872;25.314;2024-01-30T03:33:25;99115.16;;;-2.76;86.45
42771;BME280;28426;42.872;25.314;2024-01-30T03:35:56;99111.50;;;-2.70;90.39
42771;BME280;28426;42.872;25.314;2024-01-30T03:38:29;99117.28;;;-2.62;90.45
42771;BME280;28426;42.872;25.314;2024-01-30T03:41:00;99110.91;;;-2.53;88.87
42771;BME280;28426;42.872;25.314;2024-01-30T03:43:31;99105.72;;;-2.55;88.59
42771;BME280;28426;42.872;25.314;2024-01-30T03:46:02;99105.03;;;-2.60;89.26
42771;BME280;28426;42.872;25.314;2024-01-30T03:48:33;99110.41;;;-2.65;89.39
42771;BME280;28426;42.872;25.314;2024-01-30T03:51:04;99114.16;;;-2.72;90.09
42771;BME280;28426;42.872;25.314;2024-01-30T03:53:38;99115.75;;;-2.68;91.80
42771;BME280;28426;42.872;25.314;2024-01-30T03:56:09;99115.50;;;-2.60;91.91
42771;BME280;28426;42.872;25.314;2024-01-30T03:58:40;99116.28;;;-2.58;89.84
42771;BME280;28426;42.872;25.314;2024-01-30T04:01:13;99116.56;;;-2.66;89.27
42771;BME280;28426;42.872;25.314;2024-01-30T04:03:44;99112.38;;;-2.71;89.39
42771;BME280;28426;42.872;25.314;2024-01-30T04:06:15;99110.94;;;-2.80;90.50
42771;BME280;28426;42.872;25.314;2024-01-30T04:08:49;99116.28;;;-2.85;90.99
42771;BME280;28426;42.872;25.314;2024-01-30T04:11:19;99129.53;;;-2.90;91.73
42771;BME280;28426;42.872;25.314;2024-01-30T04:13:50;99121.72;;;-2.91;92.70
42771;BME280;28426;42.872;25.314;2024-01-30T04:16:21;99120.56;;;-2.82;93.73
42771;BME280;28426;42.872;25.314;2024-01-30T04:18:52;99119.44;;;-2.73;93.14
42771;BME280;28426;42.872;25.314;2024-01-30T04:21:23;99116.72;;;-2.70;92.17
42771;BME280;28426;42.872;25.314;2024-01-30T04:23:57;99123.34;;;-2.60;93.32
42771;BME280;28426;42.872;25.314;2024-01-30T04:26:28;99118.72;;;-2.52;92.13
42771;BME280;28426;42.872;25.314;2024-01-30T04:28:59;99122.28;;;-2.54;90.29
42771;BME280;28426;42.872;25.314;2024-01-30T04:31:29;99123.34;;;-2.60;88.99
42771;BME280;28426;42.872;25.314;2024-01-30T04:34:00;99122.78;;;-2.70;88.88
42771;BME280;28426;42.872;25.314;2024-01-30T04:36:31;99131.78;;;-2.79;90.07
42771;BME280;28426;42.872;25.314;2024-01-30T04:39:04;99133.78;;;-2.87;91.04
42771;BME280;28426;42.872;25.314;2024-01-30T04:41:37;99131.09;;;-2.84;92.92
42771;BME280;28426;42.872;25.314;2024-01-30T04:44:08;99137.75;;;-2.75;93.74
42771;BME280;28426;42.872;25.314;2024-01-30T04:46:39;99135.84;;;-2.70;91.28
42771;BME280;28426;42.872;25.314;2024-01-30T04:49:11;99129.78;;;-2.70;90.24
42771;BME280;28426;42.872;25.314;2024-01-30T04:51:42;99138.72;;;-2.78;90.61
42771;BME280;28426;42.872;25.314;2024-01-30T04:54:15;99145.84;;;-2.83;90.85
42771;BME280;28426;42.872;25.314;2024-01-30T04:56:46;99140.81;;;-2.89;91.61
42771;BME280;28426;42.872;25.314;2024-01-30T04:59:17;99144.28;;;-2.89;93.96
42771;BME280;28426;42.872;25.314;2024-01-30T05:01:48;99145.81;;;-2.81;94.12
42771;BME280;28426;42.872;25.314;2024-01-30T05:04:19;99138.63;;;-2.74;92.97
42771;BME280;28426;42.872;25.314;2024-01-30T05:06:50;99136.84;;;-2.74;91.00
42771;BME280;28426;42.872;25.314;2024-01-30T05:09:24;99137.03;;;-2.79;90.96
42771;BME280;28426;42.872;25.314;2024-01-30T05:11:55;99145.94;;;-2.86;91.31
42771;BME280;28426;42.872;25.314;2024-01-30T05:14:25;99149.53;;;-2.89;91.70
42771;BME280;28426;42.872;25.314;2024-01-30T05:16:56;99147.00;;;-2.92;92.25
42771;BME280;28426;42.872;25.314;2024-01-30T05:19:27;99147.91;;;-2.93;92.74
42771;BME280;28426;42.872;25.314;2024-01-30T05:21:58;99152.00;;;-2.84;94.44
42771;BME280;28426;42.872;25.314;2024-01-30T05:24:31;99143.72;;;-2.71;93.29
42771;BME280;28426;42.872;25.314;2024-01-30T05:27:03;99140.13;;;-2.67;90.21
42771;BME280;28426;42.872;25.314;2024-01-30T05:29:33;99147.16;;;-2.69;89.12
42771;BME280;28426;42.872;25.314;2024-01-30T05:32:05;99154.31;;;-2.74;89.72
42771;BME280;28426;42.872;25.314;2024-01-30T05:34:36;99155.81;;;-2.67;92.01
42771;BME280;28426;42.872;25.314;2024-01-30T05:37:07;99158.22;;;-2.61;91.54
42771;BME280;28426;42.872;25.314;2024-01-30T05:39:44;99166.66;;;-2.53;91.46
42771;BME280;28426;42.872;25.314;2024-01-30T05:42:15;99162.03;;;-2.44;90.84
42771;BME280;28426;42.872;25.314;2024-01-30T05:44:46;99167.00;;;-2.37;90.52
42771;BME280;28426;42.872;25.314;2024-01-30T05:47:16;99160.66;;;-2.29;89.98
42771;BME280;28426;42.872;25.314;2024-01-30T05:49:47;99163.91;;;-2.22;89.84
42771;BME280;28426;42.872;25.314;2024-01-30T05:52:18;99168.03;;;-2.15;89.34
42771;BME280;28426;42.872;25.314;2024-01-30T05:54:51;99166.97;;;-2.09;89.47
42771;BME280;28426;42.872;25.314;2024-01-30T05:57:22;99169.31;;;-2.02;89.01
42771;BME280;28426;42.872;25.314;2024-01-30T05:59:53;99166.47;;;-1.95;89.17
42771;BME280;28426;42.872;25.314;2024-01-30T06:02:24;99172.38;;;-1.90;88.82
42771;BME280;28426;42.872;25.314;2024-01-30T06:04:55;99166.94;;;-1.84;88.58
42771;BME280;28426;42.872;25.314;2024-01-30T06:07:25;99168.56;;;-1.80;88.04
42771;BME280;28426;42.872;25.314;2024-01-30T06:10:06;99164.00;;;-1.75;88.10
42771;BME280;28426;42.872;25.314;2024-01-30T06:12:37;99176.06;;;-1.71;87.81
42771;BME280;28426;42.872;25.314;2024-01-30T06:15:09;99170.66;;;-1.66;87.62
42771;BME280;28426;42.872;25.314;2024-01-30T06:17:40;99169.63;;;-1.62;87.43
42771;BME280;28426;42.872;25.314;2024-01-30T06:20:11;99167.75;;;-1.58;87.12
42771;BME280;28426;42.872;25.314;2024-01-30T06:22:42;99168.56;;;-1.56;87.17
42771;BME280;28426;42.872;25.314;2024-01-30T06:25:15;99167.53;;;-1.52;86.97
42771;BME280;28426;42.872;25.314;2024-01-30T06:27:46;99162.19;;;-1.49;86.47
42771;BME280;28426;42.872;25.314;2024-01-30T06:30:17;99172.53;;;-1.46;86.09
42771;BME280;28426;42.872;25.314;2024-01-30T06:32:48;99162.88;;;-1.43;85.81
42771;BME280;28426;42.872;25.314;2024-01-30T06:35:22;99163.66;;;-1.41;85.71
42771;BME280;28426;42.872;25.314;2024-01-30T06:37:53;99168.78;;;-1.38;85.63
42771;BME280;28426;42.872;25.314;2024-01-30T06:40:26;99172.19;;;-1.36;85.57
42771;BME280;28426;42.872;25.314;2024-01-30T06:42:57;99166.06;;;-1.35;85.03
42771;BME280;28426;42.872;25.314;2024-01-30T06:45:28;99169.44;;;-1.33;84.79
42771;BME280;28426;42.872;25.314;2024-01-30T06:47:59;99165.00;;;-1.31;84.48
42771;BME280;28426;42.872;25.314;2024-01-30T06:50:29;99166.78;;;-1.32;84.43
42771;BME280;28426;42.872;25.314;2024-01-30T06:53:00;99177.22;;;-1.30;84.09
42771;BME280;28426;42.872;25.314;2024-01-30T06:55:34;99172.84;;;-1.31;84.04
42771;BME280;28426;42.872;25.314;2024-01-30T06:58:04;99173.66;;;-1.29;83.58
42771;BME280;28426;42.872;25.314;2024-01-30T07:00:35;99171.91;;;-1.28;83.45
42771;BME280;28426;42.872;25.314;2024-01-30T07:03:06;99182.31;;;-1.27;83.76
42771;BME280;28426;42.872;25.314;2024-01-30T07:05:37;99187.53;;;-1.27;83.24
42771;BME280;28426;42.872;25.314;2024-01-30T07:08:08;99184.88;;;-1.25;83.34
42771;BME280;28426;42.872;25.314;2024-01-30T07:10:41;99184.88;;;-1.25;82.91
42771;BME280;28426;42.872;25.314;2024-01-30T07:13:12;99182.25;;;-1.25;83.13
42771;BME280;28426;42.872;25.314;2024-01-30T07:15:44;99184.81;;;-1.24;82.89
42771;BME280;28426;42.872;25.314;2024-01-30T07:18:15;99184.81;;;-1.24;82.31
42771;BME280;28426;42.872;25.314;2024-01-30T07:20:45;99182.19;;;-1.24;81.99
42771;BME280;28426;42.872;25.314;2024-01-30T07:23:17;99180.50;;;-1.25;81.84
42771;BME280;28426;42.872;25.314;2024-01-30T07:25:50;99185.75;;;-1.25;82.21
42771;BME280;28426;42.872;25.314;2024-01-30T07:28:21;99184.81;;;-1.24;82.17
42771;BME280;28426;42.872;25.314;2024-01-30T07:30:52;99183.91;;;-1.23;81.85
42771;BME280;28426;42.872;25.314;2024-01-30T07:33:22;99178.66;;;-1.23;81.86
42771;BME280;28426;42.872;25.314;2024-01-30T07:35:54;99183.84;;;-1.21;82.09
42771;BME280;28426;42.872;25.314;2024-01-30T07:38:25;99184.72;;;-1.21;81.89
42771;BME280;28426;42.872;25.314;2024-01-30T07:40:58;99182.03;;;-1.19;81.64
42771;BME280;28426;42.872;25.314;2024-01-30T07:43:29;99181.13;;;-1.18;81.67
42771;BME280;28426;42.872;25.314;2024-01-30T07:46:03;99180.19;;;-1.17;81.37
42771;BME280;28426;42.872;25.314;2024-01-30T07:48:34;99191.53;;;-1.16;81.44
42771;BME280;28426;42.872;25.314;2024-01-30T07:51:05;99192.31;;;-1.14;80.87
42771;BME280;28426;42.872;25.314;2024-01-30T07:53:36;99185.28;;;-1.12;81.23
42771;BME280;28426;42.872;25.314;2024-01-30T07:56:12;99186.97;;;-1.11;80.86
42771;BME280;28426;42.872;25.314;2024-01-30T07:58:43;99188.69;;;-1.10;80.88
42771;BME280;28426;42.872;25.314;2024-01-30T08:01:15;99186.06;;;-1.10;80.77
42771;BME280;28426;42.872;25.314;2024-01-30T08:03:46;99186.88;;;-1.08;80.72
42771;BME280;28426;42.872;25.314;2024-01-30T08:06:17;99187.66;;;-1.06;80.51
42771;BME280;28426;42.872;25.314;2024-01-30T08:08:47;99183.19;;;-1.04;80.85
42771;BME280;28426;42.872;25.314;2024-01-30T08:11:23;99183.94;;;-1.00;80.61
42771;BME280;28426;42.872;25.314;2024-01-30T08:13:55;99182.09;;;-0.98;80.36
42771;BME280;28426;42.872;25.314;2024-01-30T08:16:26;99175.88;;;-0.96;80.45
42771;BME280;28426;42.872;25.314;2024-01-30T08:18:56;99179.25;;;-0.92;80.05
42771;BME280;28426;42.872;25.314;2024-01-30T08:21:29;99173.09;;;-0.91;80.39
42771;BME280;28426;42.872;25.314;2024-01-30T08:24:07;99166.88;;;-0.88;79.86
42771;BME280;28426;42.872;25.314;2024-01-30T08:26:40;99176.38;;;-0.86;79.69
42771;BME280;28426;42.872;25.314;2024-01-30T08:29:11;99175.47;;;-0.85;79.98
42771;BME280;28426;42.872;25.314;2024-01-30T08:31:42;99183.16;;;-0.80;79.60
42771;BME280;28426;42.872;25.314;2024-01-30T08:34:13;99176.13;;;-0.80;78.79
42771;BME280;28426;42.872;25.314;2024-01-30T08:36:44;99190.88;;;-0.77;78.79
42771;BME280;28426;42.872;25.314;2024-01-30T08:39:15;99183.88;;;-0.76;78.79
42771;BME280;28426;42.872;25.314;2024-01-30T08:41:49;99188.19;;;-0.75;78.83
42771;BME280;28426;42.872;25.314;2024-01-30T08:44:20;99187.22;;;-0.73;78.36
42771;BME280;28426;42.872;25.314;2024-01-30T08:46:51;99183.81;;;-0.75;77.69
42771;BME280;28426;42.872;25.314;2024-01-30T08:49:23;99189.97;;;-0.76;78.03
42771;BME280;28426;42.872;25.314;2024-01-30T08:51:54;99185.63;;;-0.77;77.97
42771;BME280;28426;42.872;25.314;2024-01-30T08:54:25;99190.03;;;-0.77;78.20
42771;BME280;28426;42.872;25.314;2024-01-30T08:56:59;99184.91;;;-0.81;77.14
42771;BME280;28426;42.872;25.314;2024-01-30T08:59:29;99178.88;;;-0.83;77.35
42771;BME280;28426;42.872;25.314;2024-01-30T09:02:01;99189.44;;;-0.84;77.70
42771;BME280;28426;42.872;25.314;2024-01-30T09:04:39;99177.25;;;-0.85;77.95
42771;BME280;28426;42.872;25.314;2024-01-30T09:07:10;99172.97;;;-0.88;78.07
42771;BME280;28426;42.872;25.314;2024-01-30T09:09:41;99174.53;;;-0.84;77.97
42771;BME280;28426;42.872;25.314;2024-01-30T09:12:15;99179.72;;;-0.82;78.32
42771;BME280;28426;42.872;25.314;2024-01-30T09:14:46;99178.81;;;-0.81;78.17
42771;BME280;28426;42.872;25.314;2024-01-30T09:17:17;99179.59;;;-0.79;78.39
42771;BME280;28426;42.872;25.314;2024-01-30T09:19:47;99172.59;;;-0.78;78.04
42771;BME280;28426;42.872;25.314;2024-01-30T09:22:18;99176.88;;;-0.76;78.19
42771;BME280;28426;42.872;25.314;2024-01-30T09:24:49;99178.56;;;-0.75;78.02
42771;BME280;28426;42.872;25.314;2024-01-30T09:27:22;99167.16;;;-0.74;78.18
42771;BME280;28426;42.872;25.314;2024-01-30T09:29:53;99171.47;;;-0.73;78.00
42771;BME280;28426;42.872;25.314;2024-01-30T09:32:24;99168.81;;;-0.71;77.97
42771;BME280;28426;42.872;25.314;2024-01-30T09:34:55;99166.19;;;-0.71;78.26
42771;BME280;28426;42.872;25.314;2024-01-30T09:37:26;99161.75;;;-0.69;78.01
42771;BME280;28426;42.872;25.314;2024-01-30T09:39:57;99160.03;;;-0.70;76.87
42771;BME280;28426;42.872;25.314;2024-01-30T09:42:35;99152.34;;;-0.75;76.83
42771;BME280;28426;42.872;25.314;2024-01-30T09:45:07;99154.16;;;-0.77;77.29
42771;BME280;28426;42.872;25.314;2024-01-30T09:47:40;99151.63;;;-0.78;77.49
42771;BME280;28426;42.872;25.314;2024-01-30T09:50:13;99147.22;;;-0.78;77.35
42771;BME280;28426;42.872;25.314;2024-01-30T09:52:45;99154.25;;;-0.78;77.50
42771;BME280;28426;42.872;25.314;2024-01-30T09:55:15;99154.16;;;-0.77;77.86
42771;BME280;28426;42.872;25.314;2024-01-30T09:57:49;99161.97;;;-0.75;77.90
42771;BME280;28426;42.872;25.314;2024-01-30T10:00:20;99150.50;;;-0.73;77.65
42771;BME280;28426;42.872;25.314;2024-01-30T10:02:55;99142.66;;;-0.73;77.83
42771;BME280;28426;42.872;25.314;2024-01-30T10:05:27;99150.50;;;-0.73;77.05
42771;BME280;28426;42.872;25.314;2024-01-30T10:08:01;99146.91;;;-0.70;77.48
42771;BME280;28426;42.872;25.314;2024-01-30T10:10:36;99139.91;;;-0.70;77.27
42771;BME280;28426;42.872;25.314;2024-01-30T10:13:10;99148.59;;;-0.68;77.40
42771;BME280;28426;42.872;25.314;2024-01-30T10:15:41;99134.66;;;-0.70;77.04
42771;BME280;28426;42.872;25.314;2024-01-30T10:18:13;99144.00;;;-0.62;77.25
42771;BME280;28426;42.872;25.314;2024-01-30T10:20:44;99150.00;;;-0.60;77.32
42771;BME280;28426;42.872;25.314;2024-01-30T10:23:14;99143.84;;;-0.59;76.79
42771;BME280;28426;42.872;25.314;2024-01-30T10:25:45;99145.47;;;-0.57;76.75
42771;BME280;28426;42.872;25.314;2024-01-30T10:28:19;99151.59;;;-0.56;76.69
42771;BME280;28426;42.872;25.314;2024-01-30T10:30:57;99141.22;;;-0.59;76.25
42771;BME280;28426;42.872;25.314;2024-01-30T10:33:33;99141.22;;;-0.59;75.88
42771;BME280;28426;42.872;25.314;2024-01-30T10:36:05;99132.69;;;-0.64;76.16
42771;BME280;28426;42.872;25.314;2024-01-30T10:38:36;99147.44;;;-0.62;76.07
42771;BME280;28426;42.872;25.314;2024-01-30T10:41:08;99139.66;;;-0.63;76.22
42771;BME280;28426;42.872;25.314;2024-01-30T10:43:50;99131.00;;;-0.66;75.67
42771;BME280;28426;42.872;25.314;2024-01-30T10:46:31;99129.16;;;-0.63;76.40
42771;BME280;28426;42.872;25.314;2024-01-30T10:49:03;99130.72;;;-0.59;75.90
42771;BME280;28426;42.872;25.314;2024-01-30T10:51:37;99125.50;;;-0.59;75.63
42771;BME280;28426;42.872;25.314;2024-01-30T10:54:09;99135.88;;;-0.56;75.92
42771;BME280;28426;42.872;25.314;2024-01-30T10:56:42;99121.72;;;-0.52;76.17
42771;BME280;28426;42.872;25.314;2024-01-30T10:59:16;99129.31;;;-0.46;76.18
42771;BME280;28426;42.872;25.314;2024-01-30T11:01:47;99127.28;;;-0.39;76.61
42771;BME280;28426;42.872;25.314;2024-01-30T11:04:18;99117.38;;;-0.32;76.31
42771;BME280;28426;42.872;25.314;2024-01-30T11:06:49;99108.31;;;-0.25;76.20
42771;BME280;28426;42.872;25.314;2024-01-30T11:09:21;99108.19;;;-0.22;75.13
42771;BME280;28426;42.872;25.314;2024-01-30T11:11:56;99108.19;;;-0.22;73.39
42771;BME280;28426;42.872;25.314;2024-01-30T11:14:31;99106.34;;;-0.20;74.21
42771;BME280;28426;42.872;25.314;2024-01-30T11:17:03;99104.53;;;-0.18;73.94
42771;BME280;28426;42.872;25.314;2024-01-30T11:19:35;99100.97;;;-0.17;73.05
42771;BME280;28426;42.872;25.314;2024-01-30T11:22:06;99095.72;;;-0.17;72.68
42771;BME280;28426;42.872;25.314;2024-01-30T11:24:39;99087.00;;;-0.17;73.15
42771;BME280;28426;42.872;25.314;2024-01-30T11:27:11;99089.63;;;-0.17;71.60
42771;BME280;28426;42.872;25.314;2024-01-30T11:29:50;99079.19;;;-0.19;71.40
42771;BME280;28426;42.872;25.314;2024-01-30T11:32:22;99080.97;;;-0.19;71.43
42771;BME280;28426;42.872;25.314;2024-01-30T11:34:54;99080.13;;;-0.20;71.77
42771;BME280;28426;42.872;25.314;2024-01-30T11:37:26;99086.22;;;-0.19;71.04
42771;BME280;28426;42.872;25.314;2024-01-30T11:39:58;99080.97;;;-0.19;70.75
42771;BME280;28426;42.872;25.314;2024-01-30T11:42:30;99077.50;;;-0.20;70.53
42771;BME280;28426;42.872;25.314;2024-01-30T11:45:05;99081.81;;;-0.19;70.88
42771;BME280;28426;42.872;25.314;2024-01-30T11:47:36;99080.13;;;-0.20;69.95
42771;BME280;28426;42.872;25.314;2024-01-30T11:50:11;99087.97;;;-0.20;70.79
42771;BME280;28426;42.872;25.314;2024-01-30T11:52:42;99081.03;;;-0.21;70.73
42771;BME280;28426;42.872;25.314;2024-01-30T11:55:14;99074.94;;;-0.21;70.20
42771;BME280;28426;42.872;25.314;2024-01-30T11:57:45;99075.84;;;-0.22;70.63
42771;BME280;28426;42.872;25.314;2024-01-30T12:00:19;99070.59;;;-0.22;70.20
42771;BME280;28426;42.872;25.314;2024-01-30T12:02:50;99063.66;;;-0.23;70.54
42771;BME280;28426;42.872;25.314;2024-01-30T12:05:24;99075.78;;;-0.21;70.25
42771;BME280;28426;42.872;25.314;2024-01-30T12:07:55;99057.41;;;-0.21;70.09
42771;BME280;28426;42.872;25.314;2024-01-30T12:10:29;99060.03;;;-0.21;69.64
42771;BME280;28426;42.872;25.314;2024-01-30T12:13:01;99053.16;;;-0.23;69.01
42771;BME280;28426;42.872;25.314;2024-01-30T12:15:35;99055.78;;;-0.23;69.17
42771;BME280;28426;42.872;25.314;2024-01-30T12:18:07;99054.09;;;-0.24;69.32
42771;BME280;28426;42.872;25.314;2024-01-30T12:20:38;99048.75;;;-0.23;69.24
42771;BME280;28426;42.872;25.314;2024-01-30T12:23:09;99048.69;;;-0.21;69.34
42771;BME280;28426;42.872;25.314;2024-01-30T12:25:40;99048.63;;;-0.20;68.74
42771;BME280;28426;42.872;25.314;2024-01-30T12:28:10;99034.78;;;-0.23;68.28
42771;BME280;28426;42.872;25.314;2024-01-30T12:30:46;99040.69;;;-0.18;68.70
42771;BME280;28426;42.872;25.314;2024-01-30T12:33:17;99035.56;;;-0.21;68.50
42771;BME280;28426;42.872;25.314;2024-01-30T12:35:48;99040.75;;;-0.20;68.78
42771;BME280;28426;42.872;25.314;2024-01-30T12:38:29;99040.75;;;-0.20;69.10
42771;BME280;28426;42.872;25.314;2024-01-30T12:41:00;99043.38;;;-0.20;68.92
42771;BME280;28426;42.872;25.314;2024-01-30T12:43:32;99046.06;;;-0.21;68.07
42771;BME280;28426;42.872;25.314;2024-01-30T12:46:08;99036.56;;;-0.24;68.30
42771;BME280;28426;42.872;25.314;2024-01-30T12:48:39;99050.59;;;-0.25;68.36
42771;BME280;28426;42.872;25.314;2024-01-30T12:51:10;99050.59;;;-0.25;68.82
42771;BME280;28426;42.872;25.314;2024-01-30T12:53:41;99040.03;;;-0.23;68.95
42771;BME280;28426;42.872;25.314;2024-01-30T12:56:12;99043.59;;;-0.24;67.62
42771;BME280;28426;42.872;25.314;2024-01-30T12:58:42;99048.75;;;-0.23;67.96
42771;BME280;28426;42.872;25.314;2024-01-30T13:01:20;99043.44;;;-0.21;68.35
42771;BME280;28426;42.872;25.314;2024-01-30T13:03:52;99040.75;;;-0.20;68.43
42771;BME280;28426;42.872;25.314;2024-01-30T13:06:25;99041.56;;;-0.18;68.35
42771;BME280;28426;42.872;25.314;2024-01-30T13:08:56;99046.81;;;-0.18;68.10
42771;BME280;28426;42.872;25.314;2024-01-30T13:11:27;99041.56;;;-0.18;67.46
42771;BME280;28426;42.872;25.314;2024-01-30T13:13:57;99043.25;;;-0.17;67.75